tititudorancea.com
Station Historical Data
Daily Summary for April 8, 2018 Units:  Metric    English   Both
« Previous Day
Next Day »
Daily Weekly Monthly Yearly Custom
  High: Low: Average:
Temperature: -17.8 °C 10.1 °C 19.8 °C
Dew Point: -17.8 °C 3.8 °C 6.2 °C
Humidity: Humidity % 20 % 45 %
Wind Speed: 0 km/h 0 km/h 7.6 km/h
Wind Gust: 0 km/h - -
Wind:- - WNW
Pressure: 0 hPa 1012.4 hPa -
Precipitation: 0 mm    
Historical Graphs
 
 
Ararat weather Find more about Weather in Ararat, AU


 



 


Tabular Data for April 8, 2018
Time Temperature Dew Point Pressure Wind Wind Speed Wind Gust Humidity Rainfall Rate (Hourly)
-17.8 °C -17.8 °C 0 hPa Calm     Humidity % 0 mm
00:04 10.6 °C 6.3 °C 1017.2 hPa Calm     75 % 0 mm
00:17 10.4 °C 6.4 °C 1016.8 hPa Calm     76 % 0 mm
00:22 10.4 °C 6.4 °C 1016.8 hPa Calm     76 % 0 mm
00:23 10.4 °C 6.3 °C 1016.8 hPa Calm     76 % 0 mm
00:28 10.4 °C 6.2 °C 1017.2 hPa Calm     75 % 0 mm
00:33 10.3 °C 6.1 °C 1016.8 hPa Calm     75 % 0 mm
00:38 10.3 °C 6.1 °C 1016.8 hPa Calm     75 % 0 mm
00:43 10.4 °C 6.2 °C 1016.8 hPa Calm     75 % 0 mm
00:48 10.4 °C 6.2 °C 1016.8 hPa Calm     75 % 0 mm
00:53 10.4 °C 6.2 °C 1016.8 hPa Calm     75 % 0 mm
00:58 10.3 °C 6.1 °C 1016.8 hPa Calm     75 % 0 mm
01:03 10.3 °C 6.1 °C 1016.8 hPa Calm     75 % 0 mm
01:08 10.4 °C 6.2 °C 1016.8 hPa NNW 3.4 km/h 5.6 km/h 75 % 0 mm
01:13 10.4 °C 6.2 °C 1016.5 hPa NNW 4 km/h 5.6 km/h 75 % 0 mm
01:18 10.4 °C 6.2 °C 1016.5 hPa NNW 3.9 km/h 5.6 km/h 75 % 0 mm
01:23 10.6 °C 6.1 °C 1016.5 hPa NNW 3.4 km/h 5.6 km/h 74 % 0 mm
01:28 10.7 °C 6.2 °C 1016.5 hPa North 3.4 km/h 5.6 km/h 74 % 0 mm
01:33 10.7 °C 6 °C 1016.5 hPa North 2.9 km/h 3.7 km/h 73 % 0 mm
01:38 10.6 °C 5.8 °C 1016.5 hPa NNW 2.7 km/h 3.7 km/h 72 % 0 mm
01:43 10.6 °C 5.8 °C 1016.5 hPa NNW 1.3 km/h 1.9 km/h 72 % 0 mm
01:48 10.6 °C 5.7 °C 1016.5 hPa Calm   1.9 km/h 72 % 0 mm
01:53 10.5 °C 5.7 °C 1016.5 hPa Calm     72 % 0 mm
01:58 10.6 °C 5.7 °C 1016.5 hPa Calm     72 % 0 mm
02:03 10.5 °C 5.7 °C 1016.5 hPa Calm     72 % 0 mm
02:08 10.5 °C 5.7 °C 1016.5 hPa Calm     72 % 0 mm
02:13 10.4 °C 5.3 °C 1016.1 hPa Calm     71 % 0 mm
02:18 10.2 °C 5.6 °C 1016.1 hPa Calm     73 % 0 mm
02:23 10.1 °C 5.5 °C 1016.1 hPa Calm     73 % 0 mm
02:28 10.1 °C 5.7 °C 1016.1 hPa Calm     74 % 0 mm
02:33 10.1 °C 5.7 °C 1016.1 hPa Calm     74 % 0 mm
02:38 10.1 °C 5.7 °C 1016.1 hPa Calm     74 % 0 mm
02:43 10.1 °C 5.6 °C 1016.1 hPa Calm     74 % 0 mm
02:48 10.1 °C 5.6 °C 1015.8 hPa Calm     74 % 0 mm
02:53 10.1 °C 5.7 °C 1015.8 hPa Calm     74 % 0 mm
02:58 10.3 °C 5.9 °C 1015.8 hPa Calm     74 % 0 mm
03:03 10.5 °C 5.9 °C 1015.8 hPa Calm     73 % 0 mm
03:08 10.4 °C 5.8 °C 1015.8 hPa Calm     73 % 0 mm
03:13 10.5 °C 5.9 °C 1015.8 hPa Calm     73 % 0 mm
03:18 10.6 °C 5.9 °C 1015.8 hPa NNW 1.8 km/h 3.7 km/h 73 % 0 mm
03:23 10.6 °C 5.7 °C 1015.8 hPa NNW 1.3 km/h 3.7 km/h 72 % 0 mm
03:28 10.6 °C 5.9 °C 1015.5 hPa NNW 3.5 km/h 5.6 km/h 73 % 0 mm
03:33 10.9 °C 6.1 °C 1015.5 hPa NNW 1.4 km/h 3.7 km/h 72 % 0 mm
03:38 11.2 °C 5.9 °C 1015.5 hPa North 2.1 km/h 3.7 km/h 70 % 0 mm
03:43 11.3 °C 6.1 °C 1015.5 hPa North 2.4 km/h 3.7 km/h 70 % 0 mm
03:48 11.5 °C 6.2 °C 1015.5 hPa NNW 2.3 km/h 3.7 km/h 70 % 0 mm
03:53 11.8 °C 6.3 °C 1015.5 hPa North 3.4 km/h 5.6 km/h 69 % 0 mm
03:58 12.8 °C 6.6 °C 1015.5 hPa North 3.4 km/h 5.6 km/h 66 % 0 mm
04:03 13.7 °C 6.6 °C 1015.5 hPa NNW 4 km/h 5.6 km/h 62 % 0 mm
04:08 14.2 °C 6.3 °C 1015.5 hPa NNW 4.7 km/h 9.3 km/h 59 % 0 mm
04:13 14.6 °C 6.4 °C 1015.5 hPa NNW 5.5 km/h 7.4 km/h 58 % 0 mm
04:18 14.7 °C 6.2 °C 1015.5 hPa NNW 3.9 km/h 5.6 km/h 57 % 0 mm
04:23 14.7 °C 6 °C 1015.5 hPa North 3.4 km/h 5.6 km/h 56 % 0 mm
04:28 14.5 °C 6.1 °C 1015.5 hPa North 0.8 km/h 3.7 km/h 57 % 0 mm
04:33 14.3 °C 5.9 °C 1015.5 hPa NNW 0.8 km/h 5.6 km/h 57 % 0 mm
04:38 14.2 °C 6 °C 1015.5 hPa NNW 0.3 km/h 1.9 km/h 58 % 0 mm
04:43 14.1 °C 5.9 °C 1015.5 hPa NNW 1.1 km/h 1.9 km/h 58 % 0 mm
04:48 14.1 °C 5.9 °C 1015.8 hPa North 2.6 km/h 5.6 km/h 58 % 0 mm
04:53 14.1 °C 5.9 °C 1015.8 hPa North 3.7 km/h 5.6 km/h 58 % 0 mm
04:58 14.1 °C 5.9 °C 1015.8 hPa NNW 3.2 km/h 5.6 km/h 58 % 0 mm
05:03 14 °C 5.8 °C 1015.8 hPa NNW 3.4 km/h 5.6 km/h 58 % 0 mm
05:08 13.9 °C 5.8 °C 1015.8 hPa NNW 2.6 km/h 3.7 km/h 58 % 0 mm
05:13 13.9 °C 5.8 °C 1015.8 hPa NNW 4 km/h 5.6 km/h 58 % 0 mm
05:18 13.9 °C 5.8 °C 1015.8 hPa NNW 3.9 km/h 5.6 km/h 58 % 0 mm
05:23 14 °C 5.8 °C 1015.8 hPa NNW 4.3 km/h 5.6 km/h 58 % 0 mm
05:28 14.1 °C 5.9 °C 1015.8 hPa NNW 4.3 km/h 5.6 km/h 58 % 0 mm
05:33 14.2 °C 6 °C 1015.8 hPa NNW 3.9 km/h 5.6 km/h 58 % 0 mm
05:38 14.3 °C 5.9 °C 1015.8 hPa NNW 4 km/h 7.4 km/h 57 % 0 mm
05:43 14.5 °C 6.1 °C 1015.5 hPa NNW 6.1 km/h 6.1 km/h 57 % 0 mm
05:48 14.7 °C 6 °C 1015.5 hPa North 6.8 km/h 11.1 km/h 56 % 0 mm
05:53 14.9 °C 5.9 °C 1015.8 hPa NNW 5.5 km/h 6.4 km/h 55 % 0 mm
05:58 14.8 °C 5.9 °C 1015.5 hPa North 4 km/h 5.6 km/h 55 % 0 mm
06:03 14.7 °C 5.8 °C 1015.5 hPa North 3.2 km/h 9.3 km/h 55 % 0 mm
06:08 14.6 °C 5.9 °C 1015.5 hPa NNW 5.1 km/h 7.4 km/h 56 % 0 mm
06:13 14.4 °C 5.8 °C 1015.5 hPa North 4.3 km/h 5.6 km/h 56 % 0 mm
06:18 14.2 °C 5.8 °C 1015.5 hPa NNW 2.3 km/h 3.7 km/h 57 % 0 mm
06:23 13.8 °C 5.7 °C 1015.5 hPa North 0.6 km/h 3.7 km/h 58 % 0 mm
06:28 13.4 °C 5.8 °C 1015.8 hPa North 2.7 km/h 3.7 km/h 60 % 0 mm
06:33 12.9 °C 5.6 °C 1015.8 hPa NNW 4 km/h 5.6 km/h 61 % 0 mm
06:38 12.6 °C 5.4 °C 1015.8 hPa NNW 0.3 km/h 1.9 km/h 62 % 0 mm
06:41 12.4 °C 5.6 °C 1015.8 hPa North 2.9 km/h 5.6 km/h 63 % 0 mm
06:46 12.7 °C 5.8 °C 1015.8 hPa NNW 5 km/h 5.6 km/h 63 % 0 mm
06:51 13 °C 5.7 °C 1015.5 hPa NNW 5 km/h 5.6 km/h 61 % 0 mm
06:55 13.4 °C 5.8 °C 1015.8 hPa North 6.4 km/h 7.4 km/h 60 % 0 mm
07:00 13.7 °C 5.8 °C 1015.8 hPa NNW 6.1 km/h 6.4 km/h 59 % 0 mm
07:05 13.8 °C 5.9 °C 1015.5 hPa NNW 5.8 km/h 7.4 km/h 59 % 0 mm
07:11 14 °C 6.1 °C 1015.5 hPa North 5.5 km/h 6.4 km/h 59 % 0 mm
07:16 14.3 °C 6.1 °C 1015.8 hPa NNW 4.5 km/h 5.6 km/h 58 % 0 mm
07:19 14.4 °C 6 °C 1015.8 hPa NNW 5 km/h 5.6 km/h 57 % 0 mm
07:24 14.5 °C 6.1 °C 1015.8 hPa NNW 2.9 km/h 5.6 km/h 57 % 0 mm
07:29 14.6 °C 6.1 °C 1015.8 hPa NNW 3.2 km/h 5.6 km/h 57 % 0 mm
07:34 14.6 °C 5.9 °C 1015.8 hPa NNW 4.2 km/h 7.4 km/h 56 % 0 mm
07:37 14.7 °C 6 °C 1015.5 hPa NNW 2.6 km/h 5.6 km/h 56 % 0 mm
07:40 14.7 °C 6.2 °C 1015.8 hPa NNW 3.2 km/h 5.6 km/h 57 % 0 mm
07:45 14.8 °C 6.1 °C 1015.8 hPa North 5.6 km/h 7.4 km/h 56 % 0 mm
07:50 14.9 °C 6.5 °C 1015.8 hPa NNW 4.3 km/h 5.6 km/h 57 % 0 mm
07:55 15.1 °C 6.4 °C 1015.8 hPa NNW 4.2 km/h 5.6 km/h 56 % 0 mm
08:00 15.2 °C 6.5 °C 1015.8 hPa NNW 3.2 km/h 7.4 km/h 56 % 0 mm
08:05 15.4 °C 6.4 °C 1015.8 hPa NNW 6.1 km/h 7.4 km/h 55 % 0 mm
08:10 15.6 °C 6.6 °C 1015.5 hPa NNW 5.6 km/h 7.4 km/h 55 % 0 mm
08:15 15.9 °C 6.8 °C 1015.5 hPa NNW 6.1 km/h 9.3 km/h 55 % 0 mm
08:20 16.2 °C 6.9 °C 1015.5 hPa NNW 6.9 km/h 9.3 km/h 54 % 0 mm
08:25 16.5 °C 6.9 °C 1015.5 hPa NNW 6.1 km/h 13 km/h 53 % 0 mm
08:30 16.7 °C 7.1 °C 1015.5 hPa NNW 13 km/h 18.5 km/h 53 % 0 mm
08:35 17.1 °C 7.2 °C 1015.5 hPa NNW 7.7 km/h 9.3 km/h 52 % 0 mm
08:39 17.3 °C 7.1 °C 1015.5 hPa NNW 8.9 km/h 12.9 km/h 51 % 0 mm
08:40 17.4 °C 7.2 °C 1015.5 hPa NNW 10 km/h 14.8 km/h 51 % 0 mm
08:45 17.7 °C 7.4 °C 1015.5 hPa North 15.6 km/h 16.7 km/h 51 % 0 mm
08:50 17.9 °C 7.4 °C 1015.5 hPa North 10 km/h 14.8 km/h 50 % 0 mm
08:55 18.2 °C 7.3 °C 1015.5 hPa North 10 km/h 18.5 km/h 49 % 0 mm
09:00 18.4 °C 7.2 °C 1015.5 hPa NNW 6.4 km/h 18.5 km/h 48 % 0 mm
09:05 18.6 °C 7.1 °C 1015.5 hPa North 13.5 km/h 20.4 km/h 47 % 0 mm
09:10 18.8 °C 6.9 °C 1015.5 hPa North 14.3 km/h 18.5 km/h 46 % 0 mm
09:15 19 °C 6.8 °C 1015.5 hPa NNE 8.7 km/h 14.8 km/h 45 % 0 mm
09:20 19.2 °C 6.9 °C 1015.5 hPa NNW 14.3 km/h 18.5 km/h 45 % 0 mm
09:25 19.4 °C 6.8 °C 1015.5 hPa North 18 km/h 27.8 km/h 44 % 0 mm
09:30 19.6 °C 7 °C 1015.5 hPa NNW 12.2 km/h 16.7 km/h 44 % 0 mm
09:35 19.7 °C 6.8 °C 1015.5 hPa North 17.5 km/h 31.5 km/h 43 % 0 mm
09:40 19.9 °C 7.3 °C 1015.5 hPa NNW 10.5 km/h 13 km/h 44 % 0 mm
09:45 20 °C 7.4 °C 1015.5 hPa NNW 8.5 km/h 16.7 km/h 44 % 0 mm
09:50 20.2 °C 7.2 °C 1015.5 hPa North 10.3 km/h 25.9 km/h 43 % 0 mm
09:55 20.6 °C 7.6 °C 1015.5 hPa North 9.8 km/h 18.5 km/h 43 % 0 mm
10:00 20.9 °C 7.2 °C 1015.5 hPa North 12.6 km/h 25.9 km/h 41 % 0 mm
10:10 21.4 °C 6.5 °C 1015.1 hPa North 18.5 km/h 18.5 km/h 38 % 0 mm
10:15 21.8 °C 6.4 °C 1015.1 hPa North 11.7 km/h 22.2 km/h 37 % 0 mm
10:20 22.1 °C 6.7 °C 1015.1 hPa North 9.8 km/h 20.4 km/h 37 % 0 mm
10:25 22.5 °C 6.3 °C 1015.1 hPa NNW 11.6 km/h 22.2 km/h 35 % 0 mm
10:30 22.9 °C 6.2 °C 1014.8 hPa NNW 12.4 km/h 20.9 km/h 34 % 0 mm
10:35 23.1 °C 5.5 °C 1014.8 hPa North 16.1 km/h 25.9 km/h 32 % 0 mm
10:40 23.1 °C 5.9 °C 1014.8 hPa North 8.5 km/h 22.5 km/h 33 % 0 mm
10:45 23.2 °C 5.2 °C 1014.8 hPa North 18.8 km/h 31.5 km/h 31 % 0 mm
10:50 23.5 °C 5.8 °C 1014.8 hPa NE 13 km/h 25.9 km/h 32 % 0 mm
10:55 23.4 °C 5.3 °C 1014.4 hPa North 20.6 km/h 31.5 km/h 31 % 0 mm
11:00 23.6 °C 5.5 °C 1014.4 hPa North 22.4 km/h 33.8 km/h 31 % 0 mm
11:05 23.8 °C 5.6 °C 1014.4 hPa North 15 km/h 22.2 km/h 31 % 0 mm
11:10 23.9 °C 5.3 °C 1014.4 hPa North 24.6 km/h 31.5 km/h 30 % 0 mm
11:15 24.1 °C 5.4 °C 1014.4 hPa NNE 14 km/h 25.9 km/h 30 % 0 mm
11:20 24.4 °C 5.2 °C 1014.4 hPa North 19.8 km/h 24.1 km/h 29 % 0 mm
11:25 24.7 °C 5.5 °C 1014.4 hPa North 14 km/h 22.2 km/h 29 % 0 mm
11:30 24.9 °C 5.1 °C 1014.1 hPa NNW 19.6 km/h 20.4 km/h 28 % 0 mm
11:35 25.1 °C 5.3 °C 1013.8 hPa NNE 22.9 km/h 33.3 km/h 28 % 0 mm
11:40 25.4 °C 5 °C 1014.1 hPa North 23 km/h 31.5 km/h 27 % 0 mm
11:45 25.2 °C 4.3 °C 1013.8 hPa NNE 27 km/h 38.9 km/h 26 % 0 mm
11:50 25.3 °C 4.4 °C 1013.8 hPa North 23.7 km/h 35.2 km/h 26 % 0 mm
11:55 25.4 °C 4.5 °C 1013.8 hPa NNE 21.9 km/h 35.2 km/h 26 % 0 mm
12:00 25.6 °C 4.7 °C 1013.4 hPa NNW 18.7 km/h 29.6 km/h 26 % 0 mm
12:05 25.6 °C 4.7 °C 1013.4 hPa North 14.6 km/h 27.8 km/h 26 % 0 mm
12:10 25.8 °C 4.8 °C 1013.4 hPa NW 22.2 km/h 42.6 km/h 26 % 0 mm
12:15 25.9 °C 4.9 °C 1013.4 hPa NNW 13.7 km/h 31.5 km/h 26 % 0 mm
12:20 26 °C 4.4 °C 1013.4 hPa NNW 22.2 km/h 33.3 km/h 25 % 0 mm
12:25 26.3 °C 4.7 °C 1013.4 hPa North 16.3 km/h 25.9 km/h 25 % 0 mm
12:30 26.5 °C 4.9 °C 1013.4 hPa North 19 km/h 42.6 km/h 25 % 0 mm
12:35 26.7 °C 4.4 °C 1013.4 hPa NNE 23 km/h 43.5 km/h 24 % 0 mm
12:40 26.9 °C 4.7 °C 1013.4 hPa North 20.9 km/h 33.3 km/h 24 % 0 mm
12:45 27.2 °C 4.8 °C 1013.1 hPa NNW 17.1 km/h 31.5 km/h 24 % 0 mm
12:50 27.4 °C 5 °C 1013.1 hPa NNW 11.6 km/h 24.1 km/h 24 % 0 mm
12:55 27.5 °C 4.5 °C 1013.1 hPa NNW 18.5 km/h 24.1 km/h 23 % 0 mm
13:00 27.9 °C 4.8 °C 1013.1 hPa North 15.8 km/h 24.1 km/h 23 % 0 mm
13:05 28 °C 4.3 °C 1013.1 hPa North 18.5 km/h 25.9 km/h 22 % 0 mm
13:10 28.3 °C 4.6 °C 1013.1 hPa North 12.4 km/h 22.5 km/h 22 % 0 mm
13:15 28.4 °C 4.6 °C 1013.1 hPa NNW 15.6 km/h 18.5 km/h 22 % 0 mm
13:20 28.6 °C 4.1 °C 1013.1 hPa North 16.1 km/h 25.9 km/h 21 % 0 mm
13:25 28.4 °C 3.9 °C 1013.1 hPa North 19 km/h 31.5 km/h 21 % 0 mm
13:30 28.7 °C 4.2 °C 1012.8 hPa WNW 20.1 km/h 25.7 km/h 21 % 0 mm
13:35 28.8 °C 4.3 °C 1012.8 hPa NNW 13 km/h 18.5 km/h 21 % 0 mm
13:40 29.2 °C 3.9 °C 1012.8 hPa NNW 23.2 km/h 31.5 km/h 20 % 0 mm
13:45 28.4 °C 3.9 °C 1012.8 hPa West 17.9 km/h 31.5 km/h 21 % 0 mm
13:50 28.1 °C 4.4 °C 1012.8 hPa NW 13.2 km/h 20.4 km/h 22 % 0 mm
13:55 28.3 °C 4.5 °C 1012.8 hPa North 17.9 km/h 24.1 km/h 22 % 0 mm
14:00 28.3 °C 4.6 °C 1012.4 hPa NW 5.3 km/h 9.3 km/h 22 % 0 mm
14:05 28.6 °C 4.8 °C 1012.4 hPa North 12.2 km/h 16.1 km/h 22 % 0 mm
14:10 28.7 °C 4.2 °C 1012.4 hPa North 19.6 km/h 27.8 km/h 21 % 0 mm
14:15 28.7 °C 4.2 °C 1012.4 hPa NW 6.1 km/h 7.4 km/h 21 % 0 mm
14:20 28.9 °C 4.4 °C 1012.4 hPa North 10.9 km/h 16.7 km/h 21 % 0 mm
14:25 29.4 °C 4.8 °C 1012.4 hPa NW 13.4 km/h 18.5 km/h 21 % 0 mm
14:30 29.6 °C 4.3 °C 1012.4 hPa WNW 12.1 km/h 24.1 km/h 20 % 0 mm
14:35 29.7 °C 4.3 °C 1012.4 hPa NW 11.9 km/h 18.5 km/h 20 % 0 mm
14:40 30 °C 4.6 °C 1012.4 hPa WNW 15.6 km/h 18.5 km/h 20 % 0 mm
14:45 29.4 °C 4.1 °C 1012.4 hPa WNW 7.7 km/h 14.8 km/h 20 % 0 mm
14:50 29.1 °C 3.8 °C 1012.4 hPa WNW 19.3 km/h 31.5 km/h 20 % 0 mm
14:55 28.7 °C 4.2 °C 1012.8 hPa West 15.6 km/h 24.1 km/h 21 % 0 mm
15:00 29 °C 4.4 °C 1012.8 hPa West 13.8 km/h 18.5 km/h 21 % 0 mm
15:05 29 °C 4.4 °C 1012.8 hPa WNW 15.8 km/h 22.2 km/h 21 % 0 mm
15:10 28.8 °C 4.3 °C 1012.8 hPa North 17.4 km/h 24.1 km/h 21 % 0 mm
15:15 28.8 °C 4.3 °C 1012.4 hPa North 15.1 km/h 19.3 km/h 21 % 0 mm
15:20 28.8 °C 4.3 °C 1012.4 hPa North 13.8 km/h 20.4 km/h 21 % 0 mm
15:25 28.7 °C 4.2 °C 1012.4 hPa WNW 10.6 km/h 14.5 km/h 21 % 0 mm
15:30 28.6 °C 4.1 °C 1012.4 hPa North 11.6 km/h 18.5 km/h 21 % 0 mm
15:35 28.5 °C 4.1 °C 1012.4 hPa West 5.5 km/h 8 km/h 21 % 0 mm
15:40 28.8 °C 4.9 °C 1012.4 hPa West 7.1 km/h 7.4 km/h 22 % 0 mm
15:45 29.3 °C 4.7 °C 1012.4 hPa North 6.3 km/h 9.3 km/h 21 % 0 mm
15:50 29.2 °C 4.6 °C 1012.4 hPa West 10.6 km/h 14.8 km/h 21 % 0 mm
15:55 28.9 °C 4.4 °C 1012.8 hPa West 6.6 km/h 8 km/h 21 % 0 mm
16:00 28.7 °C 4.2 °C 1012.8 hPa West 11.9 km/h 18.5 km/h 21 % 0 mm
16:05 28.8 °C 4.3 °C 1012.8 hPa West 10.8 km/h 13 km/h 21 % 0 mm
16:10 28.8 °C 4.9 °C 1012.8 hPa WNW 4.8 km/h 8 km/h 22 % 0 mm
16:15 28.7 °C 4.2 °C 1012.8 hPa West 11.1 km/h 16.1 km/h 21 % 0 mm
16:20 28.6 °C 4.8 °C 1012.8 hPa WSW 8.2 km/h 13 km/h 22 % 0 mm
16:25 28.6 °C 4.1 °C 1012.8 hPa WSW 8.4 km/h 13 km/h 21 % 0 mm
16:30 28.6 °C 4.8 °C 1012.8 hPa WSW 4.2 km/h 7.4 km/h 22 % 0 mm
16:35 28.5 °C 4.7 °C 1012.8 hPa WSW 8.9 km/h 11.3 km/h 22 % 0 mm
16:40 28.4 °C 4.7 °C 1012.8 hPa North 9 km/h 13 km/h 22 % 0 mm
16:45 28.4 °C 4.6 °C 1012.8 hPa North 15.4 km/h 22.2 km/h 22 % 0 mm
16:50 28.4 °C 4.6 °C 1013.1 hPa North 7.6 km/h 11.1 km/h 22 % 0 mm
16:55 28.4 °C 4.7 °C 1013.1 hPa West 12.9 km/h 14.8 km/h 22 % 0 mm
17:00 28.8 °C 4.9 °C 1013.1 hPa West 7.2 km/h 9.3 km/h 22 % 0 mm
17:05 29.1 °C 4.6 °C 1013.1 hPa West 15.4 km/h 18.5 km/h 21 % 0 mm
17:10 29 °C 4.4 °C 1012.8 hPa West 10 km/h 14.8 km/h 21 % 0 mm
17:15 28.7 °C 4.9 °C 1013.1 hPa West 8.5 km/h 14.8 km/h 22 % 0 mm
17:20 28.4 °C 4.6 °C 1013.1 hPa SSW 8.5 km/h 18.5 km/h 22 % 0 mm
17:25 28 °C 5.6 °C 1013.4 hPa SW 15.4 km/h 20.4 km/h 24 % 0 mm
17:30 27.1 °C 6.5 °C 1013.4 hPa SSW 19.8 km/h 22.2 km/h 27 % 0 mm
17:35 26.3 °C 7.3 °C 1013.4 hPa WSW 14.2 km/h 20.4 km/h 30 % 0 mm
17:40 25.7 °C 7.8 °C 1013.8 hPa SW 21.2 km/h 31.5 km/h 32 % 0 mm
17:45 25.3 °C 7.9 °C 1013.8 hPa WSW 22.4 km/h 31.5 km/h 33 % 0 mm
17:50 25.2 °C 8.2 °C 1013.8 hPa North 17.1 km/h 25.9 km/h 34 % 0 mm
17:55 25 °C 8.1 °C 1013.8 hPa SSW 11.3 km/h 24.1 km/h 34 % 0 mm
18:00 24.8 °C 8.3 °C 1013.8 hPa North 18.2 km/h 25.9 km/h 35 % 0 mm
18:05 24.7 °C 8.2 °C 1014.1 hPa SSW 14.5 km/h 19.3 km/h 35 % 0 mm
18:10 24.5 °C 8.1 °C 1014.1 hPa SSW 11.7 km/h 18.5 km/h 35 % 0 mm
18:15 24.4 °C 8.3 °C 1014.1 hPa SW 17.4 km/h 22.2 km/h 36 % 0 mm
18:20 24.4 °C 8.3 °C 1014.4 hPa WSW 10.9 km/h 18.5 km/h 36 % 0 mm
18:25 24.4 °C 8.3 °C 1014.4 hPa SW 13.7 km/h 19.3 km/h 36 % 0 mm
18:30 24.3 °C 8.2 °C 1014.1 hPa WSW 13.5 km/h 20.4 km/h 36 % 0 mm
18:35 24.3 °C 8.2 °C 1014.4 hPa SW 14.3 km/h 14.8 km/h 36 % 0 mm
18:40 24.3 °C 7.8 °C 1014.4 hPa WSW 12.1 km/h 18.5 km/h 35 % 0 mm
18:45 24.3 °C 7.8 °C 1014.8 hPa SW 9.2 km/h 14.8 km/h 35 % 0 mm
18:50 24.2 °C 7.8 °C 1014.8 hPa North 8.9 km/h 20.9 km/h 35 % 0 mm
18:55 24.1 °C 8.1 °C 1014.8 hPa WSW 7.1 km/h 9.3 km/h 36 % 0 mm
19:00 24 °C 8 °C 1015.1 hPa SW 9 km/h 13 km/h 36 % 0 mm
19:05 24 °C 8 °C 1015.1 hPa SW 7.7 km/h 11.1 km/h 36 % 0 mm
19:10 24 °C 8 °C 1015.1 hPa SW 8.7 km/h 13 km/h 36 % 0 mm
19:15 23.9 °C 7.5 °C 1015.1 hPa SW 10.3 km/h 13 km/h 35 % 0 mm
19:20 23.9 °C 7.5 °C 1015.1 hPa SW 6.4 km/h 9.7 km/h 35 % 0 mm
19:25 23.9 °C 7.5 °C 1015.1 hPa SW 11.3 km/h 16.7 km/h 35 % 0 mm
19:30 23.9 °C 7.5 °C 1015.1 hPa North 5.3 km/h 8 km/h 35 % 0 mm
19:35 23.9 °C 7.5 °C 1015.1 hPa SW 6.9 km/h 13 km/h 35 % 0 mm
19:40 23.8 °C 6.9 °C 1015.1 hPa SW 10.3 km/h 14.8 km/h 34 % 0 mm
19:45 23.8 °C 6.9 °C 1015.1 hPa SW 7.6 km/h 9.3 km/h 34 % 0 mm
19:50 23.8 °C 6.9 °C 1015.1 hPa SW 3.2 km/h 7.4 km/h 34 % 0 mm
19:55 23.7 °C 7.3 °C 1015.1 hPa SW 0.8 km/h 3.7 km/h 35 % 0 mm
20:00 23.5 °C 7.6 °C 1015.1 hPa SW 1.6 km/h 3.7 km/h 36 % 0 mm
20:05 23.2 °C 8.1 °C 1015.1 hPa SW 0.5 km/h 3.7 km/h 38 % 0 mm
20:10 22.7 °C 8.1 °C 1015.1 hPa Calm     39 % 0 mm
20:15 22.3 °C 8.4 °C 1015.5 hPa Calm     41 % 0 mm
20:20 21.9 °C 8.1 °C 1015.5 hPa Calm     41 % 0 mm
20:25 21.7 °C 8.2 °C 1015.5 hPa Calm     42 % 0 mm
20:30 21.4 °C 8.3 °C 1015.1 hPa Calm     43 % 0 mm
20:35 21.1 °C 8.4 °C 1015.5 hPa Calm     44 % 0 mm
20:40 20.8 °C 8.4 °C 1015.5 hPa Calm     45 % 0 mm
20:45 20.6 °C 8.6 °C 1015.8 hPa SW 1.6 km/h 1.9 km/h 46 % 0 mm
20:50 20.6 °C 8.8 °C 1015.5 hPa Calm     47 % 0 mm
20:55 20.4 °C 8.7 °C 1015.8 hPa SW 0.2 km/h 1.6 km/h 47 % 0 mm
21:01 20.3 °C 8.6 °C 1015.8 hPa SW 0.6 km/h 1.9 km/h 47 % 0 mm
21:05 20.3 °C 8.6 °C 1015.8 hPa SW 1.4 km/h 1.6 km/h 47 % 0 mm
21:10 20.3 °C 8.3 °C 1015.8 hPa SW 1.9 km/h 3.7 km/h 46 % 0 mm
21:15 20.4 °C 8.1 °C 1015.8 hPa SW 3.7 km/h 5.6 km/h 45 % 0 mm
21:21 20.4 °C 8.1 °C 1015.8 hPa SW 0.3 km/h 3.7 km/h 45 % 0 mm
21:26 20.4 °C 8.1 °C 1015.5 hPa SW 1.9 km/h 5.6 km/h 45 % 0 mm
21:31 20.5 °C 7.8 °C 1015.5 hPa SW 4.3 km/h 5.6 km/h 44 % 0 mm
21:36 20.6 °C 8.2 °C 1015.5 hPa SW 0.3 km/h 3.7 km/h 45 % 0 mm
21:41 20.6 °C 8.2 °C 1015.5 hPa SW 4.3 km/h 5.6 km/h 45 % 0 mm
21:46 20.6 °C 7.9 °C 1015.5 hPa SW 3.4 km/h 5.6 km/h 44 % 0 mm
21:51 20.7 °C 8.3 °C 1015.5 hPa Calm     45 % 0 mm
21:56 20.8 °C 8.4 °C 1015.5 hPa SW 0.6 km/h 3.7 km/h 45 % 0 mm
22:01 20.7 °C 8.3 °C 1015.5 hPa North 0.2 km/h 1.9 km/h 45 % 0 mm
22:06 20.7 °C 8.3 °C 1015.5 hPa SW 2.3 km/h 3.7 km/h 45 % 0 mm
22:11 20.6 °C 8.3 °C 1015.5 hPa Calm     45 % 0 mm
22:16 20.4 °C 8.4 °C 1015.5 hPa Calm     46 % 0 mm
22:21 20.2 °C 8.6 °C 1015.5 hPa Calm     47 % 0 mm
22:26 20 °C 8.7 °C 1015.1 hPa SW 1.8 km/h 3.7 km/h 48 % 0 mm
22:31 19.8 °C 8.4 °C 1015.1 hPa SW 0.3 km/h 1.9 km/h 48 % 0 mm
22:36 19.6 °C 8.6 °C 1015.5 hPa Calm     49 % 0 mm
22:41 19.4 °C 8.4 °C 1015.1 hPa SW 0.2 km/h 1.9 km/h 49 % 0 mm
22:46 19.3 °C 8.7 °C 1014.8 hPa SW 5.6 km/h 7.4 km/h 50 % 0 mm
22:51 19.4 °C 8.4 °C 1014.8 hPa North 3.2 km/h 5.6 km/h 49 % 0 mm
22:56 19.5 °C 8.5 °C 1014.8 hPa Calm     49 % 0 mm
23:01 19.5 °C 8.5 °C 1014.8 hPa Calm     49 % 0 mm
23:06 19.5 °C 8.8 °C 1014.4 hPa Calm   1.9 km/h 50 % 0 mm
23:11 19.4 °C 8.7 °C 1014.4 hPa Calm     50 % 0 mm
23:16 19.3 °C 8.6 °C 1014.4 hPa Calm     50 % 0 mm
23:21 19.1 °C 8.9 °C 1014.4 hPa Calm     52 % 0 mm
23:26 18.9 °C 9.1 °C 1014.4 hPa Calm     53 % 0 mm
23:31 18.8 °C 9 °C 1014.4 hPa Calm     53 % 0 mm
23:36 18.6 °C 9.1 °C 1014.4 hPa Calm     54 % 0 mm
23:41 18.5 °C 9 °C 1014.4 hPa SW 5 km/h 8 km/h 54 % 0 mm
23:46 18.3 °C 8.8 °C 1014.4 hPa Calm     54 % 0 mm
23:51 18.2 °C 9 °C 1014.4 hPa SW 0.3 km/h 1.9 km/h 55 % 0 mm
23:56 18.1 °C 8.9 °C 1014.8 hPa SSW 5.5 km/h 8 km/h 55 % 0 mm
Ararat Weather
Compliments of Weather Underground - 2.25 mb
Click here to send mail.


ABOUT

Live weather data from Ararat, Victoria, Australia, 3377
Data uploaded from Cumulus every 5 minutes to Weather Underground.
This site then downloads the raw data for formatting and display.
Metric and imperial data can be displayed. Graphs and historical data available.
Includes Sun and Moon times and rain image live from BOM.

Check out Ararat Weather on Facebook, Twitter and Google +

Help support ongoing costs by checking out the ads





Follow @AraratWeather